createdAt,value
2023-04-28T00:01:43.622Z,26.35
2023-04-28T00:04:33.941Z,30.20
2023-04-28T00:07:22.742Z,28.23
2023-04-28T00:10:12.064Z,30.10
2023-04-28T00:13:01.094Z,30.83
2023-04-28T00:15:53.065Z,26.45
2023-04-28T00:18:41.965Z,29.50
2023-04-28T00:21:32.150Z,28.98
2023-04-28T00:24:21.205Z,28.20
2023-04-28T00:27:10.789Z,28.67
2023-04-28T00:29:59.929Z,33.05
2023-04-28T00:32:48.753Z,26.00
2023-04-28T00:35:37.608Z,27.98
2023-04-28T00:38:27.764Z,28.17
2023-04-28T00:41:16.673Z,27.10
2023-04-28T00:44:05.679Z,31.35
2023-04-28T00:46:55.573Z,28.25
2023-04-28T00:49:44.418Z,27.30
2023-04-28T00:52:33.524Z,30.03
2023-04-28T00:55:26.036Z,26.58
2023-04-28T00:58:16.407Z,29.85
2023-04-28T01:01:05.750Z,29.55
2023-04-28T01:03:54.692Z,29.52
2023-04-28T01:06:45.911Z,29.07
2023-04-28T01:09:34.737Z,33.40
2023-04-28T01:12:25.152Z,32.95
2023-04-28T01:15:18.600Z,30.30
2023-04-28T01:18:08.374Z,26.52
2023-04-28T01:20:57.738Z,28.23
2023-04-28T01:23:49.073Z,30.50
2023-04-28T01:26:38.434Z,27.90
2023-04-28T01:29:28.315Z,29.23
2023-04-28T01:32:17.362Z,25.87
2023-04-28T01:35:06.956Z,31.90
2023-04-28T01:37:57.449Z,28.67
2023-04-28T01:40:47.729Z,27.30
2023-04-28T01:43:36.475Z,29.73
2023-04-28T01:46:25.410Z,28.13
2023-04-28T01:49:14.618Z,25.90
2023-04-28T01:52:03.523Z,35.27
2023-04-28T01:54:52.333Z,30.77
2023-04-28T01:57:42.786Z,27.60
2023-04-28T02:00:32.085Z,30.50
2023-04-28T02:03:21.190Z,32.37
2023-04-28T02:06:10.226Z,32.20
2023-04-28T02:08:58.886Z,25.87
2023-04-28T02:11:47.608Z,28.70
2023-04-28T02:14:37.700Z,30.87
2023-04-28T02:17:26.465Z,34.53
2023-04-28T02:20:15.563Z,29.87
2023-04-28T02:23:04.348Z,26.43
2023-04-28T02:26:03.810Z,28.00
2023-04-28T02:28:52.498Z,31.27
2023-04-28T02:31:42.615Z,30.40
2023-04-28T02:34:31.372Z,30.37
2023-04-28T02:37:20.756Z,31.53
2023-04-28T02:40:12.076Z,26.77
2023-04-28T02:43:01.171Z,31.07
2023-04-28T02:45:49.930Z,27.70
2023-04-28T02:48:40.928Z,31.77
2023-04-28T02:51:30.005Z,30.10
2023-04-28T02:54:27.383Z,26.47
2023-04-28T02:57:17.175Z,28.00
2023-04-28T03:00:07.187Z,25.17
2023-04-28T03:03:04.095Z,29.30
2023-04-28T03:05:54.148Z,26.70
2023-04-28T03:08:43.117Z,29.53
2023-04-28T03:11:32.236Z,28.00
2023-04-28T03:14:21.247Z,31.80
2023-04-28T03:17:10.185Z,24.63
2023-04-28T03:19:59.735Z,27.00
2023-04-28T03:22:49.970Z,30.63
2023-04-28T03:25:42.422Z,29.17
2023-04-28T03:28:31.242Z,31.13
2023-04-28T03:31:22.042Z,25.60
2023-04-28T03:34:10.632Z,32.60
2023-04-28T03:36:59.436Z,27.23
2023-04-28T03:39:53.422Z,26.13
2023-04-28T03:42:42.210Z,26.60
2023-04-28T03:45:33.655Z,23.60
2023-04-28T03:48:23.210Z,26.47
2023-04-28T03:51:12.934Z,32.50
2023-04-28T03:54:01.940Z,22.93
2023-04-28T03:56:52.815Z,28.50
2023-04-28T03:59:41.731Z,26.47
2023-04-28T04:02:32.355Z,28.60
2023-04-28T04:05:22.829Z,27.10
2023-04-28T04:08:11.876Z,26.57
2023-04-28T04:11:00.893Z,25.47
2023-04-28T04:13:50.874Z,27.63
2023-04-28T04:16:41.355Z,27.70
2023-04-28T04:19:30.300Z,25.87
2023-04-28T04:22:19.177Z,30.57
2023-04-28T04:25:08.542Z,28.33
2023-04-28T04:27:58.033Z,32.33
2023-04-28T04:30:48.303Z,28.77
2023-04-28T04:33:37.475Z,28.07
2023-04-28T04:36:27.643Z,27.57
2023-04-28T04:39:16.980Z,31.27
2023-04-28T04:42:22.608Z,26.10
2023-04-28T04:45:25.688Z,29.30
2023-04-28T04:48:16.334Z,26.53
2023-04-28T04:51:05.281Z,29.93
2023-04-28T04:53:54.129Z,28.97
2023-04-28T04:56:43.423Z,34.27
2023-04-28T04:59:34.296Z,26.17
2023-04-28T05:02:29.211Z,22.97
2023-04-28T05:05:21.933Z,27.30
2023-04-28T05:08:28.008Z,31.93
2023-04-28T05:11:16.997Z,29.33
2023-04-28T05:14:06.438Z,29.03
2023-04-28T05:16:55.499Z,24.23
2023-04-28T05:19:47.557Z,27.77
2023-04-28T05:22:38.631Z,38.53
2023-04-28T05:25:27.601Z,27.88
2023-04-28T05:28:16.968Z,23.77
2023-04-28T05:31:07.331Z,26.88
2023-04-28T05:33:56.332Z,30.05
2023-04-28T05:36:45.376Z,32.67
2023-04-28T05:39:36.587Z,28.58
2023-04-28T05:42:27.098Z,26.90
2023-04-28T05:45:16.378Z,26.25
2023-04-28T05:48:05.847Z,27.98
2023-04-28T05:50:54.639Z,25.00
2023-04-28T05:53:43.771Z,26.95
2023-04-28T05:56:34.907Z,25.30
2023-04-28T05:59:24.810Z,26.65
2023-04-28T06:02:14.277Z,25.25
2023-04-28T06:05:03.604Z,26.80
2023-04-28T06:07:55.146Z,24.88
2023-04-28T06:10:44.396Z,23.45
2023-04-28T06:13:34.540Z,28.02
2023-04-28T06:16:25.247Z,26.30
2023-04-28T06:19:18.943Z,32.97
2023-04-28T06:22:07.804Z,23.98
2023-04-28T06:24:57.567Z,26.65
2023-04-28T06:27:57.354Z,22.58
2023-04-28T06:30:51.499Z,22.90
2023-04-28T06:33:44.429Z,23.13
2023-04-28T06:36:33.871Z,16.45
2023-04-28T06:39:22.883Z,19.52
2023-04-28T06:42:12.005Z,20.30
2023-04-28T06:45:04.500Z,17.40
2023-04-28T06:47:55.846Z,22.13
2023-04-28T06:50:45.086Z,15.10
2023-04-28T06:53:34.103Z,14.75
2023-04-28T06:56:23.510Z,14.65
2023-04-28T06:59:13.031Z,17.73
2023-04-28T07:02:02.448Z,11.98
2023-04-28T07:04:52.859Z,13.82
2023-04-28T07:07:41.637Z,17.88
2023-04-28T07:10:30.356Z,11.93
2023-04-28T07:13:19.515Z,26.00
2023-04-28T07:16:08.382Z,13.98
2023-04-28T07:18:57.447Z,11.68
2023-04-28T07:21:47.533Z,14.60
2023-04-28T07:24:36.336Z,17.73
2023-04-28T07:27:25.092Z,14.88
2023-04-28T07:30:26.715Z,10.07
2023-04-28T07:33:16.336Z,11.35
2023-04-28T07:36:05.467Z,14.77
2023-04-28T07:38:55.684Z,11.02
2023-04-28T07:41:44.418Z,11.15
2023-04-28T07:44:34.072Z,9.73
2023-04-28T07:47:23.304Z,5.40
2023-04-28T07:50:13.370Z,6.65
2023-04-28T07:53:05.778Z,5.35
2023-04-28T07:55:56.353Z,9.70
2023-04-28T07:58:45.121Z,4.97
2023-04-28T08:01:34.280Z,6.65
2023-04-28T08:04:23.708Z,9.15
2023-04-28T08:07:15.347Z,4.85
2023-04-28T08:10:04.515Z,8.27
2023-04-28T08:12:54.906Z,5.07
2023-04-28T08:15:43.712Z,4.78
2023-04-28T08:18:32.458Z,6.95
2023-04-28T08:21:21.347Z,17.38
2023-04-28T08:24:10.937Z,5.95
2023-04-28T08:27:00.878Z,5.07
2023-04-28T08:29:51.434Z,6.35
2023-04-28T08:32:40.085Z,4.38
2023-04-28T08:35:29.249Z,4.57
2023-04-28T08:38:18.404Z,4.20
2023-04-28T08:41:07.479Z,4.18
2023-04-28T08:43:56.487Z,5.28
2023-04-28T08:46:50.948Z,6.22
2023-04-28T08:49:41.630Z,5.03
2023-04-28T08:52:31.456Z,6.53
2023-04-28T08:55:20.920Z,4.95
2023-04-28T08:58:10.348Z,6.55
2023-04-28T09:01:04.697Z,6.93
2023-04-28T09:03:56.126Z,4.43
2023-04-28T09:06:45.623Z,5.72
2023-04-28T09:09:39.353Z,6.43
2023-04-28T09:12:38.700Z,4.40
2023-04-28T09:15:30.596Z,7.50
2023-04-28T09:18:20.730Z,9.02
2023-04-28T09:21:12.010Z,15.68
2023-04-28T09:24:00.926Z,83.22
2023-04-28T09:26:53.527Z,7.45
2023-04-28T09:29:54.820Z,25.80
2023-04-28T09:32:44.105Z,9.30
2023-04-28T09:35:41.046Z,5.25
2023-04-28T09:38:31.201Z,4.70
2023-04-28T09:41:19.909Z,6.30
2023-04-28T09:44:16.697Z,12.15
2023-04-28T09:47:22.891Z,10.27
2023-04-28T09:50:15.159Z,8.57
2023-04-28T09:53:04.297Z,4.68
2023-04-28T09:55:56.984Z,4.65
2023-04-28T09:58:47.421Z,7.13
2023-04-28T10:01:41.540Z,7.93
2023-04-28T10:04:33.952Z,4.45
2023-04-28T10:07:23.685Z,3.70
2023-04-28T10:10:17.111Z,5.75
2023-04-28T10:13:08.021Z,5.47
2023-04-28T10:15:58.680Z,5.85
2023-04-28T10:18:48.046Z,4.78
2023-04-28T10:21:44.478Z,6.50
2023-04-28T10:24:34.662Z,4.32
2023-04-28T10:27:30.395Z,5.72
2023-04-28T10:30:27.988Z,4.57
2023-04-28T10:33:32.991Z,4.30
2023-04-28T10:36:48.262Z,4.53
2023-04-28T10:39:37.201Z,8.68
2023-04-28T10:42:53.605Z,5.50
2023-04-28T10:46:15.412Z,4.57
2023-04-28T10:49:04.339Z,4.95
2023-04-28T10:51:53.192Z,4.18
2023-04-28T10:54:41.930Z,3.60
2023-04-28T10:57:30.573Z,3.40
2023-04-28T11:00:30.594Z,4.07
2023-04-28T11:03:51.267Z,4.00
2023-04-28T11:06:42.097Z,4.55
2023-04-28T11:09:49.938Z,6.75
2023-04-28T11:12:58.525Z,5.43
2023-04-28T11:16:04.460Z,5.45
2023-04-28T11:18:57.172Z,5.82
2023-04-28T11:21:46.256Z,3.75
2023-04-28T11:24:35.077Z,3.47
2023-04-28T11:27:26.153Z,7.88
2023-04-28T11:30:25.409Z,9.00
2023-04-28T11:33:15.031Z,5.53
2023-04-28T11:36:06.460Z,6.28
2023-04-28T11:38:57.353Z,6.70
2023-04-28T11:41:46.868Z,5.45
2023-04-28T11:44:35.495Z,4.97
2023-04-28T11:47:32.636Z,5.13
2023-04-28T11:50:39.383Z,4.82
2023-04-28T11:53:43.754Z,8.05
2023-04-28T11:56:38.991Z,7.28
2023-04-28T11:59:29.390Z,6.25
2023-04-28T12:02:26.082Z,7.60
2023-04-28T12:05:14.978Z,9.77
2023-04-28T12:08:04.297Z,6.97
2023-04-28T12:11:13.075Z,5.10
2023-04-28T12:14:10.585Z,5.80
2023-04-28T12:16:59.555Z,9.23
2023-04-28T12:19:48.426Z,4.28
2023-04-28T12:22:46.977Z,5.57
2023-04-28T12:25:44.582Z,5.50
2023-04-28T12:28:40.473Z,7.22
2023-04-28T12:31:31.197Z,6.60
2023-04-28T12:34:20.199Z,5.90
2023-04-28T12:37:09.176Z,6.40
2023-04-28T12:39:58.179Z,5.00
2023-04-28T12:42:47.340Z,4.70
2023-04-28T12:45:38.737Z,7.53
2023-04-28T12:48:29.938Z,4.47
2023-04-28T12:51:18.788Z,8.38
2023-04-28T12:54:07.939Z,4.57
2023-04-28T12:56:57.025Z,11.13
2023-04-28T12:59:47.259Z,14.50
2023-04-28T13:02:36.175Z,7.85
2023-04-28T13:05:27.082Z,25.48
2023-04-28T13:08:15.828Z,13.50
2023-04-28T13:11:16.211Z,43.80
2023-04-28T13:14:11.535Z,6.20
2023-04-28T13:17:00.357Z,5.57
2023-04-28T13:19:50.038Z,6.63
2023-04-28T13:22:40.545Z,8.52
2023-04-28T13:25:29.277Z,7.40
2023-04-28T13:28:18.336Z,8.02
2023-04-28T13:31:07.131Z,6.28
2023-04-28T13:33:55.971Z,5.65
2023-04-28T13:36:45.852Z,5.82
2023-04-28T13:39:36.255Z,6.43
2023-04-28T13:42:25.024Z,9.35
2023-04-28T13:45:16.241Z,8.98
2023-04-28T13:48:06.864Z,6.00
2023-04-28T13:50:55.863Z,5.70
2023-04-28T13:53:44.616Z,7.57
2023-04-28T13:56:34.845Z,8.57
2023-04-28T13:59:23.622Z,8.25
2023-04-28T14:02:12.580Z,6.90
2023-04-28T14:05:01.512Z,8.57
2023-04-28T14:07:50.183Z,7.75
2023-04-28T14:10:39.239Z,12.80
2023-04-28T14:13:29.903Z,9.13
2023-04-28T14:16:19.104Z,7.78
2023-04-28T14:19:09.072Z,8.43
2023-04-28T14:21:57.972Z,9.18
2023-04-28T14:24:47.104Z,8.50
2023-04-28T14:27:36.072Z,7.90
2023-04-28T14:30:31.148Z,8.02
2023-04-28T14:33:19.801Z,11.48
2023-04-28T14:36:08.819Z,17.95
2023-04-28T14:39:02.466Z,7.35
2023-04-28T14:41:51.736Z,10.88
2023-04-28T14:44:40.565Z,9.10
2023-04-28T14:47:30.949Z,10.18
2023-04-28T14:50:19.676Z,8.55
2023-04-28T14:53:08.505Z,8.23
2023-04-28T14:56:07.592Z,9.82
2023-04-28T14:59:06.978Z,10.85
2023-04-28T15:01:56.726Z,7.82
2023-04-28T15:04:47.837Z,8.07
2023-04-28T15:07:37.557Z,8.68
2023-04-28T15:10:27.113Z,6.78
2023-04-28T15:13:15.923Z,7.22
2023-04-28T15:16:06.173Z,8.93
2023-04-28T15:18:54.857Z,7.70
2023-04-28T15:21:45.376Z,7.50
2023-04-28T15:24:33.972Z,7.30
2023-04-28T15:27:23.258Z,8.90
2023-04-28T15:30:13.036Z,9.07
2023-04-28T15:33:02.124Z,6.75
2023-04-28T15:35:53.729Z,8.00
2023-04-28T15:38:45.400Z,7.72
2023-04-28T15:41:35.244Z,8.80
2023-04-28T15:44:24.764Z,9.70
2023-04-28T15:47:14.260Z,10.70
2023-04-28T15:50:03.451Z,9.85
2023-04-28T15:52:52.407Z,10.27
2023-04-28T15:55:42.918Z,8.48
2023-04-28T15:58:32.149Z,10.98
2023-04-28T16:01:22.155Z,11.27
2023-04-28T16:04:14.531Z,7.95
2023-04-28T16:07:04.653Z,8.48
2023-04-28T16:09:54.213Z,7.03
2023-04-28T16:12:45.283Z,7.80
2023-04-28T16:15:34.402Z,8.57
2023-04-28T16:18:23.248Z,7.78
2023-04-28T16:22:27.288Z,10.30
2023-04-28T16:25:16.239Z,12.60
2023-04-28T16:28:07.305Z,9.05
2023-04-28T16:30:56.715Z,8.25
2023-04-28T16:33:45.557Z,8.65
2023-04-28T16:36:34.522Z,7.82
2023-04-28T16:39:23.400Z,8.32
2023-04-28T16:42:12.524Z,10.70
2023-04-28T16:45:03.465Z,8.82
2023-04-28T16:47:52.990Z,9.77
2023-04-28T16:50:42.050Z,12.07
2023-04-28T16:53:31.018Z,8.05
2023-04-28T16:56:19.864Z,11.40
2023-04-28T16:59:08.628Z,10.25
2023-04-28T17:01:58.963Z,8.88
2023-04-28T17:04:48.132Z,8.93
2023-04-28T17:07:37.146Z,9.68
2023-04-28T17:10:26.435Z,6.57
2023-04-28T17:13:15.125Z,9.32
2023-04-28T17:16:04.323Z,7.93
2023-04-28T17:18:55.170Z,12.82
2023-04-28T17:21:43.878Z,9.32
2023-04-28T17:24:32.789Z,8.23
2023-04-28T17:27:21.614Z,10.02
2023-04-28T17:30:13.396Z,10.90
2023-04-28T17:33:02.596Z,9.93
2023-04-28T17:35:52.873Z,8.93
2023-04-28T17:38:41.677Z,10.68
2023-04-28T17:41:30.970Z,8.52
2023-04-28T17:44:19.619Z,9.88
2023-04-28T17:47:08.577Z,9.73
2023-04-28T17:49:58.018Z,12.18
2023-04-28T17:52:49.225Z,9.85
2023-04-28T17:55:39.702Z,7.38
2023-04-28T17:58:29.230Z,8.55
2023-04-28T18:01:18.539Z,8.07
2023-04-28T18:04:07.824Z,15.40
2023-04-28T18:06:56.640Z,13.07
2023-04-28T18:09:46.924Z,12.23
2023-04-28T18:12:35.592Z,9.75
2023-04-28T18:15:24.640Z,8.45
2023-04-28T18:18:13.847Z,10.48
2023-04-28T18:21:02.775Z,10.73
2023-04-28T18:23:51.606Z,10.15
2023-04-28T18:26:42.182Z,11.68
2023-04-28T18:29:31.184Z,11.73
2023-04-28T18:32:19.972Z,10.43
2023-04-28T18:35:09.281Z,12.02
2023-04-28T18:37:58.247Z,9.25
2023-04-28T18:40:47.017Z,12.13
2023-04-28T18:43:38.177Z,10.75
2023-04-28T18:46:27.454Z,14.07
2023-04-28T18:49:16.176Z,9.48
2023-04-28T18:52:05.511Z,11.43
2023-04-28T18:54:54.373Z,13.73
2023-04-28T18:57:43.385Z,13.55
2023-04-28T19:00:37.140Z,13.40
2023-04-28T19:03:26.433Z,10.55
2023-04-28T19:06:16.275Z,13.15
2023-04-28T19:09:05.372Z,13.07
2023-04-28T19:11:54.199Z,14.68
2023-04-28T19:14:43.130Z,14.02
2023-04-28T19:17:33.528Z,14.35
2023-04-28T19:20:22.953Z,15.30
2023-04-28T19:23:11.790Z,14.68
2023-04-28T19:26:02.205Z,17.20
2023-04-28T19:28:51.035Z,14.52
2023-04-28T19:31:46.177Z,14.52
2023-04-28T19:34:38.821Z,13.95
2023-04-28T19:37:28.151Z,16.77
2023-04-28T19:40:17.697Z,17.42
2023-04-28T19:43:08.625Z,14.85
2023-04-28T19:45:58.160Z,15.73
2023-04-28T19:48:47.406Z,18.98
2023-04-28T19:51:40.383Z,15.00
2023-04-28T19:54:29.385Z,17.88
2023-04-28T19:57:19.284Z,18.25
2023-04-28T20:00:10.382Z,17.05
2023-04-28T20:02:59.338Z,15.57
2023-04-28T20:05:48.136Z,17.50
2023-04-28T20:08:38.553Z,18.23
2023-04-28T20:11:27.570Z,19.67
2023-04-28T20:14:16.273Z,18.15
2023-04-28T20:17:07.167Z,19.65
2023-04-28T20:19:55.996Z,24.92
2023-04-28T20:22:44.669Z,20.63
2023-04-28T20:25:38.414Z,19.45
2023-04-28T20:28:27.731Z,18.88
2023-04-28T20:31:16.857Z,19.13
2023-04-28T20:34:05.723Z,19.55
2023-04-28T20:36:55.939Z,18.95
2023-04-28T20:39:44.966Z,19.20
2023-04-28T20:42:35.377Z,18.42
2023-04-28T20:45:24.485Z,17.27
2023-04-28T20:48:13.544Z,19.70
2023-04-28T20:51:03.833Z,20.33
2023-04-28T20:53:52.538Z,20.27
2023-04-28T20:56:42.100Z,26.08
2023-04-28T20:59:33.145Z,19.85
2023-04-28T21:02:22.001Z,17.23
2023-04-28T21:05:11.284Z,19.67
2023-04-28T21:08:00.420Z,19.08
2023-04-28T21:10:49.678Z,19.05
2023-04-28T21:13:39.767Z,22.73
2023-04-28T21:16:29.928Z,21.35
2023-04-28T21:19:18.796Z,18.60
2023-04-28T21:22:07.509Z,23.70
2023-04-28T21:24:59.967Z,24.02
2023-04-28T21:27:49.376Z,19.27
2023-04-28T21:30:38.615Z,21.15
2023-04-28T21:33:29.178Z,25.52
2023-04-28T21:36:17.809Z,17.23
2023-04-28T21:39:07.731Z,23.65
2023-04-28T21:41:56.528Z,20.80
2023-04-28T21:44:45.690Z,20.58
2023-04-28T21:47:34.558Z,20.08
2023-04-28T21:50:24.932Z,20.52
2023-04-28T21:53:13.567Z,24.73
2023-04-28T21:56:02.459Z,22.55
2023-04-28T21:58:52.075Z,21.48
2023-04-28T22:01:41.738Z,19.88
2023-04-28T22:04:31.362Z,24.75
2023-04-28T22:07:21.669Z,19.60
2023-04-28T22:10:11.642Z,22.05
2023-04-28T22:13:00.823Z,19.73
2023-04-28T22:15:49.876Z,20.20
2023-04-28T22:18:39.919Z,23.98
2023-04-28T22:21:28.525Z,20.58
2023-04-28T22:24:18.580Z,22.48
2023-04-28T22:27:07.646Z,24.63
2023-04-28T22:29:56.293Z,25.52
2023-04-28T22:32:47.121Z,20.73
2023-04-28T22:35:36.914Z,26.25
2023-04-28T22:38:25.812Z,23.77
2023-04-28T22:41:16.266Z,21.98
2023-04-28T22:44:05.300Z,25.63
2023-04-28T22:46:54.295Z,20.95
2023-04-28T22:49:43.546Z,23.50
2023-04-28T22:52:32.890Z,27.13
2023-04-28T22:55:22.127Z,22.63
2023-04-28T22:58:12.329Z,21.40
2023-04-28T23:01:04.287Z,28.08
2023-04-28T23:03:53.192Z,24.90
2023-04-28T23:06:42.056Z,20.85
2023-04-28T23:09:31.919Z,21.95
2023-04-28T23:12:22.359Z,24.48
2023-04-28T23:15:12.881Z,19.40
2023-04-28T23:18:02.201Z,23.63
2023-04-28T23:20:54.922Z,26.63
2023-04-28T23:23:43.678Z,22.77
2023-04-28T23:26:32.605Z,22.13
2023-04-28T23:29:21.650Z,26.23
2023-04-28T23:32:12.700Z,25.67
2023-04-28T23:35:02.760Z,24.15
2023-04-28T23:37:51.411Z,24.83
2023-04-28T23:40:41.365Z,26.48
2023-04-28T23:43:29.989Z,22.83
2023-04-28T23:46:18.906Z,22.77
2023-04-28T23:49:09.517Z,25.00
2023-04-28T23:51:59.403Z,24.38
2023-04-28T23:54:48.388Z,25.13
2023-04-28T23:57:39.333Z,27.67
